sensor_id;sensor_type;location;lat;lon;timestamp;temperature;humidity
52849;DHT22;38714;53.180;5.812;2023-05-19T00:00:55;10.30;99.90
52849;DHT22;38714;53.180;5.812;2023-05-19T00:03:21;10.20;99.90
52849;DHT22;38714;53.180;5.812;2023-05-19T00:05:47;10.20;99.90
52849;DHT22;38714;53.180;5.812;2023-05-19T00:08:15;10.20;99.90
52849;DHT22;38714;53.180;5.812;2023-05-19T00:10:42;10.20;99.90
52849;DHT22;38714;53.180;5.812;2023-05-19T00:13:08;10.10;99.90
52849;DHT22;38714;53.180;5.812;2023-05-19T00:15:33;10.10;99.90
52849;DHT22;38714;53.180;5.812;2023-05-19T00:17:59;10.10;99.90
52849;DHT22;38714;53.180;5.812;2023-05-19T00:20:25;10.10;99.90
52849;DHT22;38714;53.180;5.812;2023-05-19T00:22:50;10.10;99.90
52849;DHT22;38714;53.180;5.812;2023-05-19T00:25:16;10.10;99.90
52849;DHT22;38714;53.180;5.812;2023-05-19T00:27:42;10.10;99.90
52849;DHT22;38714;53.180;5.812;2023-05-19T00:30:08;10.10;99.90
52849;DHT22;38714;53.180;5.812;2023-05-19T00:32:34;10.10;99.90
52849;DHT22;38714;53.180;5.812;2023-05-19T00:34:59;10.10;99.90
52849;DHT22;38714;53.180;5.812;2023-05-19T00:37:25;10.10;99.90
52849;DHT22;38714;53.180;5.812;2023-05-19T00:39:51;10.10;99.90
52849;DHT22;38714;53.180;5.812;2023-05-19T00:42:16;10.00;99.90
52849;DHT22;38714;53.180;5.812;2023-05-19T00:44:42;10.10;99.90
52849;DHT22;38714;53.180;5.812;2023-05-19T00:47:08;10.00;99.90
52849;DHT22;38714;53.180;5.812;2023-05-19T00:49:34;10.10;99.90
52849;DHT22;38714;53.180;5.812;2023-05-19T00:52:00;10.00;99.90
52849;DHT22;38714;53.180;5.812;2023-05-19T00:54:27;10.10;99.90
52849;DHT22;38714;53.180;5.812;2023-05-19T00:56:56;10.00;99.90
52849;DHT22;38714;53.180;5.812;2023-05-19T00:59:23;10.00;99.90
52849;DHT22;38714;53.180;5.812;2023-05-19T01:01:48;10.00;99.90
52849;DHT22;38714;53.180;5.812;2023-05-19T01:04:18;10.00;99.90
52849;DHT22;38714;53.180;5.812;2023-05-19T01:06:47;10.00;99.90
52849;DHT22;38714;53.180;5.812;2023-05-19T01:09:14;10.00;99.90
52849;DHT22;38714;53.180;5.812;2023-05-19T01:11:40;10.00;99.90
52849;DHT22;38714;53.180;5.812;2023-05-19T01:14:06;10.00;99.90
52849;DHT22;38714;53.180;5.812;2023-05-19T01:16:57;10.00;99.90
52849;DHT22;38714;53.180;5.812;2023-05-19T01:30:44;9.90;99.90
52849;DHT22;38714;53.180;5.812;2023-05-19T01:33:13;9.90;99.90
52849;DHT22;38714;53.180;5.812;2023-05-19T01:35:40;9.90;99.90
52849;DHT22;38714;53.180;5.812;2023-05-19T01:38:09;9.90;99.90
52849;DHT22;38714;53.180;5.812;2023-05-19T01:40:38;9.80;99.90
52849;DHT22;38714;53.180;5.812;2023-05-19T01:43:05;9.80;99.90
52849;DHT22;38714;53.180;5.812;2023-05-19T01:45:32;9.80;99.90
52849;DHT22;38714;53.180;5.812;2023-05-19T01:48:00;9.80;99.90
52849;DHT22;38714;53.180;5.812;2023-05-19T01:50:27;9.80;99.90
52849;DHT22;38714;53.180;5.812;2023-05-19T01:52:53;9.80;99.90
52849;DHT22;38714;53.180;5.812;2023-05-19T01:55:19;9.80;99.90
52849;DHT22;38714;53.180;5.812;2023-05-19T02:08:13;9.80;99.90
52849;DHT22;38714;53.180;5.812;2023-05-19T02:10:44;9.80;99.90
52849;DHT22;38714;53.180;5.812;2023-05-19T02:13:13;9.70;99.90
52849;DHT22;38714;53.180;5.812;2023-05-19T02:15:41;9.70;99.90
52849;DHT22;38714;53.180;5.812;2023-05-19T02:18:10;9.70;99.90
52849;DHT22;38714;53.180;5.812;2023-05-19T02:20:37;9.70;99.90
52849;DHT22;38714;53.180;5.812;2023-05-19T02:23:03;9.70;99.90
52849;DHT22;38714;53.180;5.812;2023-05-19T02:25:28;9.70;99.90
52849;DHT22;38714;53.180;5.812;2023-05-19T02:27:54;9.60;99.90
52849;DHT22;38714;53.180;5.812;2023-05-19T02:30:20;9.70;99.90
52849;DHT22;38714;53.180;5.812;2023-05-19T02:32:45;9.60;99.90
52849;DHT22;38714;53.180;5.812;2023-05-19T02:35:12;9.60;99.90
52849;DHT22;38714;53.180;5.812;2023-05-19T02:37:38;9.60;99.90
52849;DHT22;38714;53.180;5.812;2023-05-19T02:40:04;9.60;99.90
52849;DHT22;38714;53.180;5.812;2023-05-19T02:42:30;9.60;99.90
52849;DHT22;38714;53.180;5.812;2023-05-19T02:44:56;9.50;99.90
52849;DHT22;38714;53.180;5.812;2023-05-19T02:47:21;9.50;99.90
52849;DHT22;38714;53.180;5.812;2023-05-19T02:49:47;9.50;99.90
52849;DHT22;38714;53.180;5.812;2023-05-19T02:52:12;9.50;99.90
52849;DHT22;38714;53.180;5.812;2023-05-19T02:54:38;9.50;99.90
52849;DHT22;38714;53.180;5.812;2023-05-19T02:57:04;9.50;99.90
52849;DHT22;38714;53.180;5.812;2023-05-19T02:59:29;9.50;99.90
52849;DHT22;38714;53.180;5.812;2023-05-19T03:01:58;9.50;99.90
52849;DHT22;38714;53.180;5.812;2023-05-19T03:04:24;9.50;99.90
52849;DHT22;38714;53.180;5.812;2023-05-19T03:06:49;9.50;99.90
52849;DHT22;38714;53.180;5.812;2023-05-19T03:09:15;9.50;99.90
52849;DHT22;38714;53.180;5.812;2023-05-19T03:11:41;9.50;99.90
52849;DHT22;38714;53.180;5.812;2023-05-19T03:14:07;9.40;99.90
52849;DHT22;38714;53.180;5.812;2023-05-19T03:16:37;9.40;99.90
52849;DHT22;38714;53.180;5.812;2023-05-19T03:19:05;9.40;99.90
52849;DHT22;38714;53.180;5.812;2023-05-19T03:21:31;9.30;99.90
52849;DHT22;38714;53.180;5.812;2023-05-19T03:23:57;9.30;99.90
52849;DHT22;38714;53.180;5.812;2023-05-19T03:26:22;9.30;99.90
52849;DHT22;38714;53.180;5.812;2023-05-19T03:28:48;9.30;99.90
52849;DHT22;38714;53.180;5.812;2023-05-19T03:31:14;9.30;99.90
52849;DHT22;38714;53.180;5.812;2023-05-19T03:33:40;9.30;99.90
52849;DHT22;38714;53.180;5.812;2023-05-19T03:36:06;9.30;99.90
52849;DHT22;38714;53.180;5.812;2023-05-19T03:38:32;9.20;99.90
52849;DHT22;38714;53.180;5.812;2023-05-19T03:40:57;9.30;99.90
52849;DHT22;38714;53.180;5.812;2023-05-19T03:43:23;9.30;99.90
52849;DHT22;38714;53.180;5.812;2023-05-19T03:45:48;9.30;99.90
52849;DHT22;38714;53.180;5.812;2023-05-19T03:48:14;9.30;99.90
52849;DHT22;38714;53.180;5.812;2023-05-19T03:50:40;9.30;99.90
52849;DHT22;38714;53.180;5.812;2023-05-19T03:53:06;9.30;99.90
52849;DHT22;38714;53.180;5.812;2023-05-19T03:55:32;9.30;99.90
52849;DHT22;38714;53.180;5.812;2023-05-19T03:57:58;9.30;99.90
52849;DHT22;38714;53.180;5.812;2023-05-19T04:00:23;9.40;99.90
52849;DHT22;38714;53.180;5.812;2023-05-19T04:02:49;9.40;99.90
52849;DHT22;38714;53.180;5.812;2023-05-19T04:05:15;9.40;99.90
52849;DHT22;38714;53.180;5.812;2023-05-19T04:07:41;9.30;99.90
52849;DHT22;38714;53.180;5.812;2023-05-19T04:10:07;9.30;99.90
52849;DHT22;38714;53.180;5.812;2023-05-19T04:12:33;9.40;99.90
52849;DHT22;38714;53.180;5.812;2023-05-19T04:14:59;9.40;99.90
52849;DHT22;38714;53.180;5.812;2023-05-19T04:17:25;9.40;99.90
52849;DHT22;38714;53.180;5.812;2023-05-19T04:19:54;9.40;99.90
52849;DHT22;38714;53.180;5.812;2023-05-19T04:22:19;9.50;99.90
52849;DHT22;38714;53.180;5.812;2023-05-19T04:24:45;9.50;99.90
52849;DHT22;38714;53.180;5.812;2023-05-19T04:27:13;9.50;99.90
52849;DHT22;38714;53.180;5.812;2023-05-19T04:29:40;9.50;99.90
52849;DHT22;38714;53.180;5.812;2023-05-19T04:32:06;9.50;99.90
52849;DHT22;38714;53.180;5.812;2023-05-19T04:34:36;9.50;99.90
52849;DHT22;38714;53.180;5.812;2023-05-19T04:37:06;9.60;99.90
52849;DHT22;38714;53.180;5.812;2023-05-19T04:39:31;9.60;99.90
52849;DHT22;38714;53.180;5.812;2023-05-19T04:41:57;9.60;99.90
52849;DHT22;38714;53.180;5.812;2023-05-19T04:44:24;9.70;99.90
52849;DHT22;38714;53.180;5.812;2023-05-19T04:46:50;9.60;99.90
52849;DHT22;38714;53.180;5.812;2023-05-19T04:49:18;9.70;99.90
52849;DHT22;38714;53.180;5.812;2023-05-19T04:51:44;9.70;99.90
52849;DHT22;38714;53.180;5.812;2023-05-19T04:54:10;9.70;99.90
52849;DHT22;38714;53.180;5.812;2023-05-19T04:56:36;9.70;99.90
52849;DHT22;38714;53.180;5.812;2023-05-19T04:59:01;9.80;99.90
52849;DHT22;38714;53.180;5.812;2023-05-19T05:01:27;9.80;99.90
52849;DHT22;38714;53.180;5.812;2023-05-19T05:03:55;9.80;99.90
52849;DHT22;38714;53.180;5.812;2023-05-19T05:06:23;9.80;99.90
52849;DHT22;38714;53.180;5.812;2023-05-19T05:08:49;9.80;99.90
52849;DHT22;38714;53.180;5.812;2023-05-19T05:11:16;9.80;99.90
52849;DHT22;38714;53.180;5.812;2023-05-19T05:13:42;9.90;99.90
52849;DHT22;38714;53.180;5.812;2023-05-19T05:16:08;9.90;99.90
52849;DHT22;38714;53.180;5.812;2023-05-19T05:18:34;9.90;99.90
52849;DHT22;38714;53.180;5.812;2023-05-19T05:21:01;10.00;99.90
52849;DHT22;38714;53.180;5.812;2023-05-19T05:23:27;10.00;99.90
52849;DHT22;38714;53.180;5.812;2023-05-19T05:25:53;10.10;99.90
52849;DHT22;38714;53.180;5.812;2023-05-19T05:28:19;10.10;99.90
52849;DHT22;38714;53.180;5.812;2023-05-19T05:30:44;10.10;99.90
52849;DHT22;38714;53.180;5.812;2023-05-19T05:33:10;10.10;99.90
52849;DHT22;38714;53.180;5.812;2023-05-19T05:35:36;10.10;99.90
52849;DHT22;38714;53.180;5.812;2023-05-19T05:38:02;10.10;99.90
52849;DHT22;38714;53.180;5.812;2023-05-19T05:40:28;10.20;99.90
52849;DHT22;38714;53.180;5.812;2023-05-19T05:42:54;10.20;99.90
52849;DHT22;38714;53.180;5.812;2023-05-19T05:45:21;10.20;99.90
52849;DHT22;38714;53.180;5.812;2023-05-19T05:47:47;10.30;99.90
52849;DHT22;38714;53.180;5.812;2023-05-19T05:50:13;10.30;99.90
52849;DHT22;38714;53.180;5.812;2023-05-19T05:52:40;10.30;99.90
52849;DHT22;38714;53.180;5.812;2023-05-19T05:55:07;10.40;99.90
52849;DHT22;38714;53.180;5.812;2023-05-19T05:57:33;10.40;99.90
52849;DHT22;38714;53.180;5.812;2023-05-19T06:00:02;10.50;99.90
52849;DHT22;38714;53.180;5.812;2023-05-19T06:02:31;10.50;99.90
52849;DHT22;38714;53.180;5.812;2023-05-19T06:04:57;10.60;99.90
52849;DHT22;38714;53.180;5.812;2023-05-19T06:07:22;10.60;99.90
52849;DHT22;38714;53.180;5.812;2023-05-19T06:09:48;10.60;99.90
52849;DHT22;38714;53.180;5.812;2023-05-19T06:12:14;10.60;99.90
52849;DHT22;38714;53.180;5.812;2023-05-19T06:14:39;10.60;99.90
52849;DHT22;38714;53.180;5.812;2023-05-19T06:17:05;10.70;99.90
52849;DHT22;38714;53.180;5.812;2023-05-19T06:19:31;10.70;99.90
52849;DHT22;38714;53.180;5.812;2023-05-19T06:21:56;10.80;99.90
52849;DHT22;38714;53.180;5.812;2023-05-19T06:24:22;10.80;99.90
52849;DHT22;38714;53.180;5.812;2023-05-19T06:26:47;10.90;99.90
52849;DHT22;38714;53.180;5.812;2023-05-19T06:29:13;10.90;99.90
52849;DHT22;38714;53.180;5.812;2023-05-19T06:31:38;11.00;99.90
52849;DHT22;38714;53.180;5.812;2023-05-19T06:34:04;11.00;99.90
52849;DHT22;38714;53.180;5.812;2023-05-19T06:36:30;11.00;99.90
52849;DHT22;38714;53.180;5.812;2023-05-19T06:38:55;11.10;99.90
52849;DHT22;38714;53.180;5.812;2023-05-19T06:41:21;11.10;99.90
52849;DHT22;38714;53.180;5.812;2023-05-19T06:43:47;11.20;99.90
52849;DHT22;38714;53.180;5.812;2023-05-19T06:46:13;11.20;99.90
52849;DHT22;38714;53.180;5.812;2023-05-19T06:48:38;11.20;99.90
52849;DHT22;38714;53.180;5.812;2023-05-19T06:51:04;11.30;99.90
52849;DHT22;38714;53.180;5.812;2023-05-19T06:53:30;11.30;99.90
52849;DHT22;38714;53.180;5.812;2023-05-19T06:55:56;11.30;99.90
52849;DHT22;38714;53.180;5.812;2023-05-19T06:58:21;11.40;99.90
52849;DHT22;38714;53.180;5.812;2023-05-19T07:00:47;11.40;99.90
52849;DHT22;38714;53.180;5.812;2023-05-19T07:03:12;11.50;99.90
52849;DHT22;38714;53.180;5.812;2023-05-19T07:05:38;11.50;99.90
52849;DHT22;38714;53.180;5.812;2023-05-19T07:08:04;11.60;99.90
52849;DHT22;38714;53.180;5.812;2023-05-19T07:10:30;11.60;99.90
52849;DHT22;38714;53.180;5.812;2023-05-19T07:12:55;11.70;99.90
52849;DHT22;38714;53.180;5.812;2023-05-19T07:15:22;11.70;99.90
52849;DHT22;38714;53.180;5.812;2023-05-19T07:17:47;11.70;99.90
52849;DHT22;38714;53.180;5.812;2023-05-19T07:20:13;11.80;99.90
52849;DHT22;38714;53.180;5.812;2023-05-19T07:22:39;11.80;99.90
52849;DHT22;38714;53.180;5.812;2023-05-19T07:25:08;11.90;99.90
52849;DHT22;38714;53.180;5.812;2023-05-19T07:27:34;11.90;99.90
52849;DHT22;38714;53.180;5.812;2023-05-19T07:30:00;11.90;99.90
52849;DHT22;38714;53.180;5.812;2023-05-19T07:32:25;12.00;99.90
52849;DHT22;38714;53.180;5.812;2023-05-19T07:34:51;12.00;99.90
52849;DHT22;38714;53.180;5.812;2023-05-19T07:37:16;12.10;99.90
52849;DHT22;38714;53.180;5.812;2023-05-19T07:39:42;12.10;99.90
52849;DHT22;38714;53.180;5.812;2023-05-19T07:42:08;12.20;99.90
52849;DHT22;38714;53.180;5.812;2023-05-19T07:44:34;12.20;99.90
52849;DHT22;38714;53.180;5.812;2023-05-19T07:47:00;12.30;99.90
52849;DHT22;38714;53.180;5.812;2023-05-19T07:49:26;12.30;99.90
52849;DHT22;38714;53.180;5.812;2023-05-19T07:51:52;12.30;99.90
52849;DHT22;38714;53.180;5.812;2023-05-19T07:54:18;12.40;99.90
52849;DHT22;38714;53.180;5.812;2023-05-19T07:56:44;12.40;99.90
52849;DHT22;38714;53.180;5.812;2023-05-19T07:59:09;12.40;99.90
52849;DHT22;38714;53.180;5.812;2023-05-19T08:01:35;12.50;99.90
52849;DHT22;38714;53.180;5.812;2023-05-19T08:04:01;12.50;99.90
52849;DHT22;38714;53.180;5.812;2023-05-19T08:06:27;12.50;99.90
52849;DHT22;38714;53.180;5.812;2023-05-19T08:08:54;12.50;99.90
52849;DHT22;38714;53.180;5.812;2023-05-19T08:11:20;12.60;99.90
52849;DHT22;38714;53.180;5.812;2023-05-19T08:13:46;12.60;99.90
52849;DHT22;38714;53.180;5.812;2023-05-19T08:16:14;12.60;99.90
52849;DHT22;38714;53.180;5.812;2023-05-19T08:18:39;12.60;99.90
52849;DHT22;38714;53.180;5.812;2023-05-19T08:21:05;12.60;99.90
52849;DHT22;38714;53.180;5.812;2023-05-19T08:23:30;12.60;99.90
52849;DHT22;38714;53.180;5.812;2023-05-19T08:25:56;12.70;99.90
52849;DHT22;38714;53.180;5.812;2023-05-19T08:28:22;12.70;99.90
52849;DHT22;38714;53.180;5.812;2023-05-19T08:30:49;12.70;99.90
52849;DHT22;38714;53.180;5.812;2023-05-19T08:33:15;12.80;99.90
52849;DHT22;38714;53.180;5.812;2023-05-19T08:35:42;12.80;99.90
52849;DHT22;38714;53.180;5.812;2023-05-19T08:38:07;12.80;99.90
52849;DHT22;38714;53.180;5.812;2023-05-19T08:40:34;12.90;99.90
52849;DHT22;38714;53.180;5.812;2023-05-19T08:43:02;12.90;99.90
52849;DHT22;38714;53.180;5.812;2023-05-19T08:45:28;12.90;99.90
52849;DHT22;38714;53.180;5.812;2023-05-19T08:47:54;13.00;99.90
52849;DHT22;38714;53.180;5.812;2023-05-19T08:50:23;13.10;99.90
52849;DHT22;38714;53.180;5.812;2023-05-19T08:53:07;13.10;99.90
52849;DHT22;38714;53.180;5.812;2023-05-19T08:55:40;13.20;99.90
52849;DHT22;38714;53.180;5.812;2023-05-19T08:58:07;13.20;99.90
52849;DHT22;38714;53.180;5.812;2023-05-19T09:00:33;13.30;99.90
52849;DHT22;38714;53.180;5.812;2023-05-19T09:03:00;13.30;99.90
52849;DHT22;38714;53.180;5.812;2023-05-19T09:05:26;13.40;99.90
52849;DHT22;38714;53.180;5.812;2023-05-19T09:07:52;13.40;99.90
52849;DHT22;38714;53.180;5.812;2023-05-19T09:10:17;13.50;99.90
52849;DHT22;38714;53.180;5.812;2023-05-19T09:12:44;13.50;99.90
52849;DHT22;38714;53.180;5.812;2023-05-19T09:15:11;13.50;99.90
52849;DHT22;38714;53.180;5.812;2023-05-19T09:17:38;13.50;99.90
52849;DHT22;38714;53.180;5.812;2023-05-19T09:20:04;13.60;99.90
52849;DHT22;38714;53.180;5.812;2023-05-19T09:22:41;13.60;99.90
52849;DHT22;38714;53.180;5.812;2023-05-19T09:25:23;13.60;99.90
52849;DHT22;38714;53.180;5.812;2023-05-19T09:27:49;13.70;99.90
52849;DHT22;38714;53.180;5.812;2023-05-19T09:30:18;13.80;99.90
52849;DHT22;38714;53.180;5.812;2023-05-19T09:32:44;13.90;99.90
52849;DHT22;38714;53.180;5.812;2023-05-19T09:35:13;13.90;99.90
52849;DHT22;38714;53.180;5.812;2023-05-19T09:37:42;14.00;99.90
52849;DHT22;38714;53.180;5.812;2023-05-19T09:40:08;14.00;99.90
52849;DHT22;38714;53.180;5.812;2023-05-19T09:42:38;14.00;99.90
52849;DHT22;38714;53.180;5.812;2023-05-19T09:45:04;14.00;99.90
52849;DHT22;38714;53.180;5.812;2023-05-19T09:47:34;14.10;99.90
52849;DHT22;38714;53.180;5.812;2023-05-19T09:50:01;14.10;99.90
52849;DHT22;38714;53.180;5.812;2023-05-19T09:52:27;14.20;99.90
52849;DHT22;38714;53.180;5.812;2023-05-19T09:54:53;14.30;99.90
52849;DHT22;38714;53.180;5.812;2023-05-19T09:57:25;14.40;99.90
52849;DHT22;38714;53.180;5.812;2023-05-19T09:59:54;14.40;99.90
52849;DHT22;38714;53.180;5.812;2023-05-19T10:02:22;14.40;99.90
52849;DHT22;38714;53.180;5.812;2023-05-19T10:04:51;14.60;99.90
52849;DHT22;38714;53.180;5.812;2023-05-19T10:07:18;14.50;99.90
52849;DHT22;38714;53.180;5.812;2023-05-19T10:09:45;14.60;99.90
52849;DHT22;38714;53.180;5.812;2023-05-19T10:12:11;14.70;99.90
52849;DHT22;38714;53.180;5.812;2023-05-19T10:14:38;14.70;99.90
52849;DHT22;38714;53.180;5.812;2023-05-19T10:17:05;14.70;99.90
52849;DHT22;38714;53.180;5.812;2023-05-19T10:19:32;14.70;99.90
52849;DHT22;38714;53.180;5.812;2023-05-19T10:21:58;14.80;99.90
52849;DHT22;38714;53.180;5.812;2023-05-19T10:24:23;14.80;99.90
52849;DHT22;38714;53.180;5.812;2023-05-19T10:26:55;14.70;99.90
52849;DHT22;38714;53.180;5.812;2023-05-19T10:29:27;14.70;99.90
52849;DHT22;38714;53.180;5.812;2023-05-19T10:31:55;14.70;99.90
52849;DHT22;38714;53.180;5.812;2023-05-19T10:39:52;14.90;99.90
52849;DHT22;38714;53.180;5.812;2023-05-19T10:45:12;14.90;99.90
52849;DHT22;38714;53.180;5.812;2023-05-19T10:47:40;15.00;99.90
52849;DHT22;38714;53.180;5.812;2023-05-19T10:50:07;15.00;99.90
52849;DHT22;38714;53.180;5.812;2023-05-19T10:52:36;15.10;99.90
52849;DHT22;38714;53.180;5.812;2023-05-19T10:55:02;15.00;99.90
52849;DHT22;38714;53.180;5.812;2023-05-19T10:57:29;15.00;99.90
52849;DHT22;38714;53.180;5.812;2023-05-19T10:59:57;15.00;99.90
52849;DHT22;38714;53.180;5.812;2023-05-19T11:02:40;15.10;99.90
52849;DHT22;38714;53.180;5.812;2023-05-19T11:05:08;15.00;99.90
52849;DHT22;38714;53.180;5.812;2023-05-19T11:07:34;15.10;99.90
52849;DHT22;38714;53.180;5.812;2023-05-19T11:10:05;15.10;99.90
52849;DHT22;38714;53.180;5.812;2023-05-19T11:12:39;15.00;99.90
52849;DHT22;38714;53.180;5.812;2023-05-19T11:15:08;15.00;99.90
52849;DHT22;38714;53.180;5.812;2023-05-19T11:17:35;15.10;99.90
52849;DHT22;38714;53.180;5.812;2023-05-19T11:20:01;15.10;99.90
52849;DHT22;38714;53.180;5.812;2023-05-19T11:22:27;15.10;99.90
52849;DHT22;38714;53.180;5.812;2023-05-19T11:24:56;15.10;99.90
52849;DHT22;38714;53.180;5.812;2023-05-19T11:27:25;15.10;99.90
52849;DHT22;38714;53.180;5.812;2023-05-19T11:29:52;15.10;99.90
52849;DHT22;38714;53.180;5.812;2023-05-19T11:32:24;15.20;99.90
52849;DHT22;38714;53.180;5.812;2023-05-19T11:34:50;15.20;99.90
52849;DHT22;38714;53.180;5.812;2023-05-19T11:37:16;15.20;99.90
52849;DHT22;38714;53.180;5.812;2023-05-19T11:39:44;15.20;99.90
52849;DHT22;38714;53.180;5.812;2023-05-19T11:42:10;15.20;99.90
52849;DHT22;38714;53.180;5.812;2023-05-19T11:44:36;15.20;99.90
52849;DHT22;38714;53.180;5.812;2023-05-19T11:47:06;15.20;99.90
52849;DHT22;38714;53.180;5.812;2023-05-19T11:49:32;15.20;99.90
52849;DHT22;38714;53.180;5.812;2023-05-19T11:52:02;15.20;99.90
52849;DHT22;38714;53.180;5.812;2023-05-19T11:54:30;15.20;99.90
52849;DHT22;38714;53.180;5.812;2023-05-19T11:56:59;15.20;99.90
52849;DHT22;38714;53.180;5.812;2023-05-19T11:59:32;15.20;99.90
52849;DHT22;38714;53.180;5.812;2023-05-19T12:02:14;15.20;99.90
52849;DHT22;38714;53.180;5.812;2023-05-19T12:04:40;15.30;99.90
52849;DHT22;38714;53.180;5.812;2023-05-19T12:07:05;15.30;99.90
52849;DHT22;38714;53.180;5.812;2023-05-19T12:09:31;15.20;99.90
52849;DHT22;38714;53.180;5.812;2023-05-19T12:11:57;15.30;99.90
52849;DHT22;38714;53.180;5.812;2023-05-19T12:14:24;15.30;99.90
52849;DHT22;38714;53.180;5.812;2023-05-19T12:16:50;15.30;99.90
52849;DHT22;38714;53.180;5.812;2023-05-19T12:19:16;15.30;99.90
52849;DHT22;38714;53.180;5.812;2023-05-19T12:21:42;15.40;99.90
52849;DHT22;38714;53.180;5.812;2023-05-19T12:24:08;15.40;99.90
52849;DHT22;38714;53.180;5.812;2023-05-19T12:26:34;15.40;99.90
52849;DHT22;38714;53.180;5.812;2023-05-19T12:29:03;15.40;99.90
52849;DHT22;38714;53.180;5.812;2023-05-19T12:31:29;15.40;99.90
52849;DHT22;38714;53.180;5.812;2023-05-19T12:33:55;15.40;99.90
52849;DHT22;38714;53.180;5.812;2023-05-19T12:36:23;15.40;99.90
52849;DHT22;38714;53.180;5.812;2023-05-19T12:38:53;15.40;99.90
52849;DHT22;38714;53.180;5.812;2023-05-19T12:41:18;15.30;99.90
52849;DHT22;38714;53.180;5.812;2023-05-19T12:43:44;15.30;99.90
52849;DHT22;38714;53.180;5.812;2023-05-19T12:46:11;15.30;99.90
52849;DHT22;38714;53.180;5.812;2023-05-19T12:48:43;15.40;99.90
52849;DHT22;38714;53.180;5.812;2023-05-19T12:51:14;15.40;99.90
52849;DHT22;38714;53.180;5.812;2023-05-19T12:53:40;15.40;99.90
52849;DHT22;38714;53.180;5.812;2023-05-19T12:56:13;15.50;99.90
52849;DHT22;38714;53.180;5.812;2023-05-19T12:58:42;15.40;99.90
52849;DHT22;38714;53.180;5.812;2023-05-19T13:01:17;15.50;99.90
52849;DHT22;38714;53.180;5.812;2023-05-19T13:03:42;15.60;99.90
52849;DHT22;38714;53.180;5.812;2023-05-19T13:06:08;15.60;99.90
52849;DHT22;38714;53.180;5.812;2023-05-19T13:08:36;15.60;99.90
52849;DHT22;38714;53.180;5.812;2023-05-19T13:11:01;15.60;99.90
52849;DHT22;38714;53.180;5.812;2023-05-19T13:13:27;15.60;99.90
52849;DHT22;38714;53.180;5.812;2023-05-19T13:15:53;15.70;99.90
52849;DHT22;38714;53.180;5.812;2023-05-19T13:18:18;15.70;99.90
52849;DHT22;38714;53.180;5.812;2023-05-19T13:20:45;15.70;99.90
52849;DHT22;38714;53.180;5.812;2023-05-19T13:23:12;15.70;99.90
52849;DHT22;38714;53.180;5.812;2023-05-19T13:25:38;15.70;99.90
52849;DHT22;38714;53.180;5.812;2023-05-19T13:28:04;15.70;99.90
52849;DHT22;38714;53.180;5.812;2023-05-19T13:30:40;15.70;99.90
52849;DHT22;38714;53.180;5.812;2023-05-19T13:33:06;15.70;99.90
52849;DHT22;38714;53.180;5.812;2023-05-19T13:35:31;15.60;99.90
52849;DHT22;38714;53.180;5.812;2023-05-19T13:38:06;15.70;99.90
52849;DHT22;38714;53.180;5.812;2023-05-19T13:40:34;15.60;99.90
52849;DHT22;38714;53.180;5.812;2023-05-19T13:43:03;15.70;99.90
52849;DHT22;38714;53.180;5.812;2023-05-19T13:45:29;15.70;99.90
52849;DHT22;38714;53.180;5.812;2023-05-19T13:47:54;15.70;99.90
52849;DHT22;38714;53.180;5.812;2023-05-19T13:50:20;15.70;99.90
52849;DHT22;38714;53.180;5.812;2023-05-19T13:52:46;15.80;99.90
52849;DHT22;38714;53.180;5.812;2023-05-19T13:55:12;15.80;99.90
52849;DHT22;38714;53.180;5.812;2023-05-19T13:57:37;15.80;99.90
52849;DHT22;38714;53.180;5.812;2023-05-19T14:00:03;15.80;99.90
52849;DHT22;38714;53.180;5.812;2023-05-19T14:02:30;15.80;99.90
52849;DHT22;38714;53.180;5.812;2023-05-19T14:04:56;15.80;99.90
52849;DHT22;38714;53.180;5.812;2023-05-19T14:07:21;15.90;99.90
52849;DHT22;38714;53.180;5.812;2023-05-19T14:09:47;15.90;99.90
52849;DHT22;38714;53.180;5.812;2023-05-19T14:12:15;15.90;99.90
52849;DHT22;38714;53.180;5.812;2023-05-19T14:14:40;15.90;99.90
52849;DHT22;38714;53.180;5.812;2023-05-19T14:17:06;16.00;99.90
52849;DHT22;38714;53.180;5.812;2023-05-19T14:19:32;16.00;99.90
52849;DHT22;38714;53.180;5.812;2023-05-19T14:21:57;16.00;99.90
52849;DHT22;38714;53.180;5.812;2023-05-19T14:24:23;16.00;99.90
52849;DHT22;38714;53.180;5.812;2023-05-19T14:26:48;16.00;99.90
52849;DHT22;38714;53.180;5.812;2023-05-19T14:29:14;16.00;99.90
52849;DHT22;38714;53.180;5.812;2023-05-19T14:31:40;16.10;99.90
52849;DHT22;38714;53.180;5.812;2023-05-19T14:34:05;16.10;99.90
52849;DHT22;38714;53.180;5.812;2023-05-19T14:36:31;16.10;99.90
52849;DHT22;38714;53.180;5.812;2023-05-19T14:38:59;16.10;99.90
52849;DHT22;38714;53.180;5.812;2023-05-19T14:41:25;16.10;99.90
52849;DHT22;38714;53.180;5.812;2023-05-19T14:43:51;16.10;99.90
52849;DHT22;38714;53.180;5.812;2023-05-19T14:46:16;16.10;99.90
52849;DHT22;38714;53.180;5.812;2023-05-19T14:48:42;16.10;99.90
52849;DHT22;38714;53.180;5.812;2023-05-19T14:51:07;16.10;99.90
52849;DHT22;38714;53.180;5.812;2023-05-19T14:53:33;16.20;99.90
52849;DHT22;38714;53.180;5.812;2023-05-19T14:55:58;16.20;99.90
52849;DHT22;38714;53.180;5.812;2023-05-19T14:58:24;16.30;99.90
52849;DHT22;38714;53.180;5.812;2023-05-19T15:00:50;16.20;99.90
52849;DHT22;38714;53.180;5.812;2023-05-19T15:03:15;16.30;99.90
52849;DHT22;38714;53.180;5.812;2023-05-19T15:05:41;16.30;99.90
52849;DHT22;38714;53.180;5.812;2023-05-19T15:08:06;16.40;99.90
52849;DHT22;38714;53.180;5.812;2023-05-19T15:10:32;16.40;99.90
52849;DHT22;38714;53.180;5.812;2023-05-19T15:12:58;16.40;99.90
52849;DHT22;38714;53.180;5.812;2023-05-19T15:15:24;16.40;99.90
52849;DHT22;38714;53.180;5.812;2023-05-19T15:17:50;16.50;99.90
52849;DHT22;38714;53.180;5.812;2023-05-19T15:20:15;16.50;99.90
52849;DHT22;38714;53.180;5.812;2023-05-19T15:22:41;16.50;99.90
52849;DHT22;38714;53.180;5.812;2023-05-19T15:25:07;16.50;99.90
52849;DHT22;38714;53.180;5.812;2023-05-19T15:27:34;16.50;99.90
52849;DHT22;38714;53.180;5.812;2023-05-19T15:30:01;16.50;99.90
52849;DHT22;38714;53.180;5.812;2023-05-19T15:32:27;16.60;99.90
52849;DHT22;38714;53.180;5.812;2023-05-19T15:34:52;16.60;99.90
52849;DHT22;38714;53.180;5.812;2023-05-19T15:37:18;16.60;99.90
52849;DHT22;38714;53.180;5.812;2023-05-19T15:39:43;16.70;99.90
52849;DHT22;38714;53.180;5.812;2023-05-19T15:42:09;16.70;99.90
52849;DHT22;38714;53.180;5.812;2023-05-19T15:44:34;16.70;99.90
52849;DHT22;38714;53.180;5.812;2023-05-19T15:47:01;16.70;99.90
52849;DHT22;38714;53.180;5.812;2023-05-19T15:49:27;16.70;99.90
52849;DHT22;38714;53.180;5.812;2023-05-19T15:51:52;16.60;99.90
52849;DHT22;38714;53.180;5.812;2023-05-19T15:54:18;16.70;99.90
52849;DHT22;38714;53.180;5.812;2023-05-19T15:56:43;16.70;99.90
52849;DHT22;38714;53.180;5.812;2023-05-19T15:59:09;16.70;99.90
52849;DHT22;38714;53.180;5.812;2023-05-19T16:01:35;16.80;99.90